Hanes, North Carolina
Current Conditions -  °F | °C
As of 3:54 AM on Thursday 23 Oct 2014 (Local Time) from KINT Reporting Station
Clear Clear  
Wind Chill: 50°   Ceiling: Unl
Heat Index: 50°   Visibility: 10mi
Dew Point: 38°   Wind: 6mph
Humidity: 63%   Direction: 310°NW
Pressure: 30.05"   Gusts: NA
Location:  36.0595°N, 80.3192°W
Report Text: KINT 230754Z AUTO 31005KT 10SM CLR 10/03 A3005 RMK AO2 SLP173 T01000033
Loading
Personal Weather Stations






























Interactive Weather Map
Tropical Storm Tracking
New forecast layout! Learn more

10-Day Weather Forecast

Advertisements
Track Severe Weather on mobile